Time;durP1;ratioP1;P1;durP2;ratioP2;P2;SDS_P1;SDS_P2;PMS_P1;PMS_P2;Temp;Humidity;BMP_temperature;BMP_pressure;BME280_temperature;BME280_humidity;BME280_pressure;Samples;Min_cycle;Max_cycle;Signal;HPM_P1;HPM_P2
2021/05/17 00:01:43;;;;;;;10.40;9.40;;;;;;;13.63;73.74;94045.81;2966662;40;20064;-70
2021/05/17 00:03:49;;;;;;;11.43;9.40;;;;;;;13.61;74.32;94054.91;2969818;39;20293;-69
2021/05/17 00:05:52;;;;;;;9.90;8.88;;;;;;;13.58;74.06;94055.28;2967640;40;20091;-69
2021/05/17 00:07:54;;;;;;;10.77;9.55;;;;;;;13.60;73.43;94048.03;2967926;39;20058;-70
2021/05/17 00:09:56;;;;;;;12.32;9.50;;;;;;;13.62;73.80;94046.00;2971456;39;20146;-69
2021/05/17 00:11:58;;;;;;;12.68;9.05;;;;;;;13.61;73.78;94049.63;2969991;39;20076;-70
2021/05/17 00:14:00;;;;;;;9.85;8.85;;;;;;;13.62;73.70;94049.44;2973447;39;20052;-69
2021/05/17 00:16:02;;;;;;;13.90;8.98;;;;;;;13.53;73.96;94050.63;2967396;39;20096;-70
2021/05/17 00:18:04;;;;;;;9.82;8.18;;;;;;;13.55;74.14;94055.66;2970020;39;20080;-70
2021/05/17 00:20:07;;;;;;;11.52;8.27;;;;;;;13.51;73.98;94058.69;2966628;40;20137;-72
2021/05/17 00:22:09;;;;;;;11.77;8.68;;;;;;;13.50;74.50;94070.22;2967964;39;20398;-70
2021/05/17 00:24:12;;;;;;;10.20;8.70;;;;;;;13.51;74.17;94065.78;2967891;39;20070;-74
2021/05/17 00:26:14;;;;;;;10.68;9.13;;;;;;;13.51;74.20;94060.53;2968511;39;20386;-69
2021/05/17 00:28:16;;;;;;;10.27;8.25;;;;;;;13.51;74.14;94066.59;2971699;39;20079;-70
2021/05/17 00:30:20;;;;;;;11.70;9.40;;;;;;;13.51;73.94;94060.53;2967824;39;20072;-69
2021/05/17 00:32:22;;;;;;;14.30;10.55;;;;;;;13.50;74.08;94057.06;2966239;40;20528;-70
2021/05/17 00:34:24;;;;;;;16.00;12.07;;;;;;;13.51;74.48;94057.88;2968821;39;20067;-69
2021/05/17 00:36:26;;;;;;;18.85;13.07;;;;;;;13.52;74.36;94052.41;2975569;39;20129;-70
2021/05/17 00:38:28;;;;;;;21.20;14.38;;;;;;;13.49;74.79;94052.81;2964807;40;20137;-68
2021/05/17 00:40:30;;;;;;;21.17;13.68;;;;;;;13.45;74.97;94053.41;2974118;39;20063;-69
2021/05/17 00:42:33;;;;;;;22.02;13.65;;;;;;;13.44;75.26;94051.75;2972981;39;20382;-68
2021/05/17 00:44:39;;;;;;;20.42;14.02;;;;;;;13.42;74.98;94045.88;2968849;39;20059;-69
2021/05/17 00:46:41;;;;;;;24.42;14.80;;;;;;;13.42;75.40;94044.06;2966290;40;20132;-69
2021/05/17 00:48:43;;;;;;;21.05;13.88;;;;;;;13.47;75.36;94048.75;2968001;39;20063;-69
2021/05/17 00:50:45;;;;;;;21.98;14.85;;;;;;;13.48;75.06;94051.16;2967901;39;20055;-70
2021/05/17 00:52:48;;;;;;;19.40;14.07;;;;;;;13.50;75.36;94043.91;2966999;39;20349;-70
2021/05/17 00:54:49;;;;;;;17.92;13.02;;;;;;;13.55;75.10;94047.78;2969391;40;20092;-70
2021/05/17 00:56:51;;;;;;;22.35;13.80;;;;;;;13.58;74.86;94048.22;2968660;39;20429;-69
2021/05/17 00:58:53;;;;;;;20.70;14.32;;;;;;;13.61;75.07;94052.28;2968237;40;20159;-69
2021/05/17 01:00:55;;;;;;;18.63;13.68;;;;;;;13.62;74.85;94062.63;2965589;40;20068;-69
2021/05/17 01:02:57;;;;;;;19.60;13.60;;;;;;;13.60;74.51;94058.56;2967261;40;20040;-71
2021/05/17 01:04:59;;;;;;;16.45;11.93;;;;;;;13.59;74.84;94056.91;2968179;39;20052;-69
2021/05/17 01:07:02;;;;;;;17.92;12.35;;;;;;;13.60;74.56;94055.91;2967483;40;20064;-71
2021/05/17 01:09:08;;;;;;;22.65;13.15;;;;;;;13.60;74.96;94058.56;2966148;39;20514;-69
2021/05/17 01:11:11;;;;;;;15.60;12.68;;;;;;;13.62;74.64;94057.34;2968098;39;20229;-71
2021/05/17 01:13:13;;;;;;;16.30;11.50;;;;;;;13.60;74.28;94063.81;2957756;40;20097;-69
2021/05/17 01:15:16;;;;;;;18.70;11.93;;;;;;;13.58;74.77;94060.56;2968344;40;20099;-70
2021/05/17 01:17:18;;;;;;;16.58;12.05;;;;;;;13.57;74.50;94064.19;2967497;39;20432;-70
2021/05/17 01:19:41;;;;;;;16.58;11.68;;;;;;;13.54;74.55;94060.13;2965899;40;20068;-69
2021/05/17 01:21:51;;;;;;;16.13;11.10;;;;;;;13.56;74.53;94063.38;2970591;39;20049;-69
2021/05/17 01:23:56;;;;;;;14.40;11.25;;;;;;;13.56;74.45;94063.38;2968619;39;20056;-69
2021/05/17 01:26:00;;;;;;;17.98;11.15;;;;;;;13.56;74.80;94067.84;2968069;39;20132;-70
2021/05/17 01:28:02;;;;;;;16.17;11.15;;;;;;;13.57;74.78;94066.81;2965859;40;20114;-70
2021/05/17 01:30:04;;;;;;;16.90;11.38;;;;;;;13.57;74.93;94064.19;2972362;39;20485;-70
2021/05/17 01:32:08;;;;;;;16.48;12.18;;;;;;;13.64;74.64;94067.69;2965329;39;20493;-70
2021/05/17 01:34:14;;;;;;;18.23;13.90;;;;;;;13.56;75.01;94073.09;2971413;39;20063;-68
2021/05/17 01:36:17;;;;;;;20.27;15.15;;;;;;;13.25;75.99;94074.25;2970698;39;20074;-69
2021/05/17 01:38:19;;;;;;;21.30;15.63;;;;;;;12.63;77.93;94073.91;2972828;39;20052;-70
2021/05/17 01:40:21;;;;;;;25.02;17.02;;;;;;;12.31;80.02;94069.13;2969601;39;20060;-69
2021/05/17 01:42:23;;;;;;;21.85;17.63;;;;;;;12.38;80.33;94059.50;2968403;39;20146;-70
2021/05/17 01:44:25;;;;;;;22.42;17.25;;;;;;;12.42;80.09;94051.06;2967393;40;20518;-69
2021/05/17 01:46:28;;;;;;;21.00;16.02;;;;;;;12.47;79.86;94056.56;2973416;39;20052;-70
2021/05/17 01:48:30;;;;;;;;;;;;;;;12.60;79.49;94048.00;2974913;39;20071;-69
2021/05/17 01:50:33;;;;;;;19.55;14.57;;;;;;;12.72;79.27;94047.53;2972940;39;19965;-69
2021/05/17 01:52:38;;;;;;;19.23;13.93;;;;;;;12.82;78.53;94046.19;2966802;39;20079;-69
2021/05/17 01:54:42;;;;;;;17.33;13.48;;;;;;;12.93;78.01;94057.19;2967530;39;20264;-70
2021/05/17 01:56:44;;;;;;;14.50;12.27;;;;;;;13.01;78.03;94055.25;2971769;39;20139;-69
2021/05/17 01:58:46;;;;;;;16.33;12.02;;;;;;;13.09;77.43;94046.41;2968291;39;20091;-70
2021/05/17 02:00:49;;;;;;;17.13;12.25;;;;;;;13.18;77.07;94047.91;2966881;39;20078;-70
2021/05/17 02:02:51;;;;;;;16.17;11.32;;;;;;;13.11;76.83;94039.97;2967366;40;20425;-71
2021/05/17 02:04:54;;;;;;;16.95;12.70;;;;;;;13.09;76.77;94039.34;2969469;40;20053;-70
2021/05/17 02:06:56;;;;;;;17.40;11.53;;;;;;;13.10;76.87;94033.09;2978184;39;20083;-68
2021/05/17 02:08:58;;;;;;;18.90;11.90;;;;;;;13.15;76.92;94026.44;2972656;39;20632;-69
2021/05/17 02:11:00;;;;;;;14.60;11.07;;;;;;;13.24;76.21;94038.44;2967516;39;20095;-70
2021/05/17 02:13:03;;;;;;;18.58;10.95;;;;;;;13.28;75.88;94029.16;2971880;39;20052;-70
2021/05/17 02:15:05;;;;;;;14.15;10.52;;;;;;;13.28;75.72;94026.53;2967896;39;20063;-69
2021/05/17 02:17:07;;;;;;;16.65;11.27;;;;;;;13.27;76.21;94030.16;2972514;39;20058;-70
2021/05/17 02:19:09;;;;;;;14.60;10.70;;;;;;;13.30;75.93;94033.25;2968987;39;20078;-70
2021/05/17 02:21:12;;;;;;;18.02;10.90;;;;;;;13.33;75.68;94032.06;2965820;40;20204;-69
2021/05/17 02:23:16;;;;;;;13.80;10.57;;;;;;;13.31;75.74;94040.16;2966646;40;20133;-71
2021/05/17 02:25:18;;;;;;;15.52;10.73;;;;;;;13.31;75.45;94034.06;2970509;40;20301;-70
2021/05/17 02:27:20;;;;;;;14.70;11.25;;;;;;;13.31;75.41;94034.06;2967031;40;20088;-70
2021/05/17 02:29:22;;;;;;;15.88;11.55;;;;;;;13.32;75.66;94035.69;2969741;39;20060;-68
2021/05/17 02:31:23;;;;;;;18.63;12.35;;;;;;;13.33;75.33;94039.94;2968954;39;20052;-70
2021/05/17 02:33:25;;;;;;;14.93;11.20;;;;;;;13.29;75.85;94041.31;2968323;39;20071;-70
2021/05/17 02:35:27;;;;;;;15.73;11.68;;;;;;;13.24;75.79;94033.19;2974002;39;20092;-82
2021/05/17 02:37:29;;;;;;;18.50;12.32;;;;;;;13.20;75.91;94030.09;2976667;39;20052;-68
2021/05/17 02:39:32;;;;;;;14.55;11.32;;;;;;;13.19;75.82;94038.22;2974624;39;20363;-72
2021/05/17 02:41:36;;;;;;;21.65;12.25;;;;;;;13.22;75.86;94040.44;2974641;39;20065;-70
2021/05/17 02:43:41;;;;;;;19.35;13.23;;;;;;;13.24;75.85;94041.06;2969640;39;20064;-70
2021/05/17 02:45:43;;;;;;;15.68;12.18;;;;;;;13.25;76.22;94045.31;2972184;39;20056;-70
2021/05/17 02:47:45;;;;;;;19.23;12.73;;;;;;;13.28;75.68;94042.31;2967621;39;20163;-69
2021/05/17 02:49:49;;;;;;;17.27;12.57;;;;;;;13.22;75.95;94050.97;2973457;39;20040;-70
2021/05/17 02:51:52;;;;;;;18.73;12.77;;;;;;;13.23;76.05;94047.34;2969222;39;20093;-69
2021/05/17 02:53:53;;;;;;;18.23;13.30;;;;;;;13.24;75.87;94052.41;2972966;39;20088;-69
2021/05/17 02:55:58;;;;;;;18.90;13.05;;;;;;;13.26;75.71;94057.47;2967108;39;20180;-70
2021/05/17 02:58:07;;;;;;;23.92;14.05;;;;;;;13.31;76.04;94049.84;2974049;39;20084;-70
2021/05/17 03:00:22;;;;;;;16.40;12.40;;;;;;;13.35;75.30;94053.72;2967796;39;20067;-69
2021/05/17 03:02:29;;;;;;;19.35;13.57;;;;;;;13.38;75.47;94057.78;2966002;39;20064;-70
2021/05/17 03:04:32;;;;;;;19.40;12.82;;;;;;;13.34;75.53;94053.94;2965404;40;20088;-69
2021/05/17 03:06:37;;;;;;;21.05;13.82;;;;;;;13.28;75.88;94058.09;2968729;40;20387;-70
2021/05/17 03:08:50;;;;;;;21.13;13.95;;;;;;;13.27;76.15;94061.72;2965605;40;20048;-70
2021/05/17 03:10:54;;;;;;;19.90;12.85;;;;;;;13.29;75.95;94057.94;2967675;39;20059;-70
2021/05/17 03:12:58;;;;;;;19.05;12.75;;;;;;;13.38;75.95;94066.50;2968031;39;20117;-68
2021/05/17 03:15:01;;;;;;;20.17;14.60;;;;;;;13.38;75.71;94063.88;2965108;40;20376;-70
2021/05/17 03:17:03;;;;;;;19.40;13.98;;;;;;;13.43;75.62;94071.19;2966827;40;20131;-69
2021/05/17 03:19:06;;;;;;;20.40;14.40;;;;;;;13.43;75.04;94077.25;2966103;40;20052;-68
2021/05/17 03:21:08;;;;;;;20.88;14.02;;;;;;;13.43;75.55;94073.81;2972395;39;20413;-83
2021/05/17 03:23:12;;;;;;;20.02;14.18;;;;;;;13.45;75.24;94074.44;2967377;40;20083;-81
2021/05/17 03:25:14;;;;;;;19.45;13.60;;;;;;;13.47;75.11;94078.50;2972676;39;20071;-82
2021/05/17 03:27:20;;;;;;;19.20;13.55;;;;;;;13.42;75.10;94066.91;2966961;40;20055;-81
2021/05/17 03:29:21;;;;;;;19.08;12.90;;;;;;;13.35;75.27;94068.69;2967934;39;20044;-83
2021/05/17 03:31:23;;;;;;;23.85;14.43;;;;;;;13.32;75.18;94067.28;2966574;40;20075;-70
2021/05/17 03:33:25;;;;;;;18.80;13.35;;;;;;;13.34;75.47;94083.66;2973857;39;20136;-69
2021/05/17 03:35:27;;;;;;;18.95;13.70;;;;;;;13.37;75.38;94079.84;2967403;39;20242;-70
2021/05/17 03:37:29;;;;;;;17.77;12.80;;;;;;;13.34;74.80;94088.94;2973267;39;20148;-70
2021/05/17 03:39:31;;;;;;;17.67;13.00;;;;;;;13.30;75.20;94098.22;2966668;40;20118;-70
2021/05/17 03:41:33;;;;;;;19.77;12.93;;;;;;;13.32;75.15;94089.13;2971412;39;20099;-69
2021/05/17 03:43:34;;;;;;;24.15;14.65;;;;;;;13.29;75.34;94099.19;2965991;40;20040;-69
2021/05/17 03:45:36;;;;;;;23.42;13.52;;;;;;;13.29;75.11;94104.47;2973532;39;20081;-70
2021/05/17 03:47:38;;;;;;;22.33;15.02;;;;;;;13.13;75.72;94100.25;2973906;39;20072;-70
2021/05/17 03:49:40;;;;;;;18.23;13.63;;;;;;;13.10;76.24;94101.47;2969312;39;20171;-70
2021/05/17 03:51:41;;;;;;;22.63;13.52;;;;;;;13.09;76.44;94099.81;2971147;39;20137;-69
2021/05/17 03:53:43;;;;;;;24.83;14.45;;;;;;;13.10;76.03;94106.72;2971881;40;20240;-71
2021/05/17 03:55:45;;;;;;;20.67;14.43;;;;;;;13.07;75.79;94101.81;2969944;39;20085;-70
2021/05/17 03:57:47;;;;;;;19.80;13.25;;;;;;;13.12;76.44;94096.03;2975081;39;20152;-71
2021/05/17 03:59:49;;;;;;;21.38;14.10;;;;;;;13.22;76.20;94103.56;2968007;40;20092;-70
2021/05/17 04:01:51;;;;;;;22.75;15.13;;;;;;;13.24;75.78;94091.84;2966394;39;20399;-68
2021/05/17 04:03:54;;;;;;;23.02;14.63;;;;;;;13.24;76.09;94094.47;2967659;40;20068;-69
2021/05/17 04:06:21;;;;;;;24.70;14.63;;;;;;;13.30;75.45;94106.09;2968788;39;20071;-70
2021/05/17 04:15:21;;;;;;;22.55;15.05;;;;;;;13.46;75.15;94086.59;2967167;40;20512;-69
2021/05/17 04:17:23;;;;;;;22.60;15.05;;;;;;;13.47;75.23;94088.22;2966736;40;20080;-70
2021/05/17 04:19:27;;;;;;;23.05;14.80;;;;;;;13.43;75.45;94090.41;2966126;40;20139;-70
2021/05/17 04:21:29;;;;;;;19.75;14.95;;;;;;;13.39;74.85;94085.72;2965993;40;20052;-70
2021/05/17 04:23:31;;;;;;;19.75;14.18;;;;;;;13.45;75.20;94085.78;2967582;40;20060;-71
2021/05/17 04:25:33;;;;;;;19.67;14.63;;;;;;;13.52;75.39;94084.00;2969585;39;20051;-71
2021/05/17 04:27:35;;;;;;;21.40;14.05;;;;;;;13.64;74.65;94086.91;2972471;39;20064;-69
2021/05/17 04:29:36;;;;;;;20.10;14.10;;;;;;;13.76;74.41;94079.28;2967635;40;20063;-71
2021/05/17 04:31:38;;;;;;;19.98;13.52;;;;;;;13.92;73.79;94084.25;2966207;40;20064;-71
2021/05/17 04:33:59;;;;;;;25.35;14.88;;;;;;;13.98;73.40;94084.47;2974326;39;20051;-71
2021/05/17 04:36:01;;;;;;;18.50;13.95;;;;;;;14.07;72.70;94085.94;2969049;39;20055;-71
2021/05/17 04:38:03;;;;;;;19.02;14.20;;;;;;;14.06;73.12;94090.38;2971464;39;20413;-70
2021/05/17 04:40:06;;;;;;;18.98;13.25;;;;;;;14.10;73.19;94088.19;2972905;39;20058;-70
2021/05/17 04:42:07;;;;;;;18.88;14.25;;;;;;;14.14;72.60;94087.59;2973130;39;20440;-70
2021/05/17 04:44:11;;;;;;;19.65;12.95;;;;;;;14.17;72.77;94082.94;2974570;39;20254;-69
2021/05/17 04:46:12;;;;;;;18.75;14.35;;;;;;;14.19;72.41;94073.03;2976633;39;20079;-83
2021/05/17 04:48:14;;;;;;;19.65;14.68;;;;;;;14.23;71.56;94075.06;2972786;39;20089;-82
2021/05/17 04:50:16;;;;;;;17.92;13.13;;;;;;;14.33;71.54;94075.50;2968324;40;20051;-83
2021/05/17 04:52:17;;;;;;;17.02;13.35;;;;;;;14.39;71.35;94066.03;2974994;40;20064;-84
2021/05/17 04:54:19;;;;;;;17.95;14.10;;;;;;;14.51;71.70;94069.69;2977279;39;20084;-82
2021/05/17 04:56:21;;;;;;;19.35;14.30;;;;;;;14.63;71.01;94063.88;2975703;39;20040;-82
2021/05/17 04:58:22;;;;;;;16.13;11.90;;;;;;;14.74;70.19;94056.19;2972203;40;20052;-83
2021/05/17 05:00:24;;;;;;;16.63;12.43;;;;;;;14.74;70.01;94064.09;2974589;39;20064;-84
2021/05/17 05:02:26;;;;;;;19.27;12.60;;;;;;;14.59;70.18;94074.00;2968929;40;20318;-83
2021/05/17 05:04:29;;;;;;;16.58;11.98;;;;;;;14.37;71.32;94077.75;2979600;39;20176;-84
2021/05/17 05:06:30;;;;;;;23.27;15.37;;;;;;;14.04;72.20;94073.16;2977982;39;20110;-83
2021/05/17 05:08:32;;;;;;;22.70;16.33;;;;;;;13.59;74.35;94083.22;2976478;39;20095;-83
2021/05/17 05:10:35;;;;;;;20.13;15.25;;;;;;;13.56;75.53;94083.63;2974282;39;20049;-83
2021/05/17 05:12:36;;;;;;;24.58;17.23;;;;;;;13.44;76.16;94092.06;2976784;39;20108;-82
2021/05/17 05:14:38;;;;;;;24.02;16.27;;;;;;;13.63;75.15;94082.66;2974962;39;20062;-82
2021/05/17 05:16:40;;;;;;;24.83;16.30;;;;;;;13.78;75.52;94077.28;2970131;39;20062;-83
2021/05/17 05:18:41;;;;;;;22.92;17.13;;;;;;;13.85;74.77;94067.59;2971353;40;20064;-84
2021/05/17 05:20:43;;;;;;;24.35;16.85;;;;;;;13.71;74.81;94076.44;2975708;39;20068;-84
2021/05/17 05:22:45;;;;;;;22.73;16.98;;;;;;;13.70;75.05;94082.69;2971323;39;20056;-84
2021/05/17 05:24:47;;;;;;;26.23;18.10;;;;;;;13.44;76.00;94085.97;2975230;39;20238;-83
2021/05/17 05:33:16;;;;;;;30.42;21.00;;;;;;;12.64;79.73;94099.19;2971832;39;20516;-71
2021/05/17 05:35:18;;;;;;;29.98;20.20;;;;;;;12.59;79.80;94095.50;2968485;39;20124;-70
2021/05/17 05:37:20;;;;;;;29.98;20.05;;;;;;;12.94;79.50;94093.81;2966405;40;20140;-69
2021/05/17 05:39:21;;;;;;;34.00;21.00;;;;;;;13.17;77.88;94092.81;2967267;40;20409;-68
2021/05/17 05:41:23;;;;;;;30.58;21.70;;;;;;;13.45;77.05;94087.59;2977339;39;20103;-69
2021/05/17 05:43:25;;;;;;;28.05;20.45;;;;;;;13.40;76.64;94087.34;2970432;39;20082;-70
2021/05/17 05:45:27;;;;;;;28.88;20.73;;;;;;;13.19;78.07;94093.44;2966572;40;20156;-70
2021/05/17 05:47:29;;;;;;;28.92;20.50;;;;;;;13.20;77.73;94090.59;2966412;40;20051;-70
2021/05/17 05:49:31;;;;;;;29.42;20.88;;;;;;;12.79;79.77;94087.81;2974908;39;20052;-69
2021/05/17 05:51:33;;;;;;;30.45;21.63;;;;;;;12.97;79.16;94085.56;2970107;39;20162;-69
2021/05/17 05:53:34;;;;;;;33.17;22.73;;;;;;;12.86;79.55;94083.41;2971301;39;20131;-74
2021/05/17 05:55:36;;;;;;;31.05;22.27;;;;;;;12.64;80.02;94091.28;2968454;39;20518;-85
2021/05/17 05:57:42;;;;;;;33.33;23.08;;;;;;;12.52;81.07;94086.72;2975732;40;20048;-83
2021/05/17 05:59:44;;;;;;;32.28;22.90;;;;;;;12.57;80.92;94090.41;2979086;39;20159;-82
2021/05/17 06:01:45;;;;;;;33.22;23.30;;;;;;;12.54;80.71;94082.94;2979181;39;20156;-84
2021/05/17 06:03:47;;;;;;;34.55;22.77;;;;;;;12.26;81.69;94072.28;2975134;39;20067;-84
2021/05/17 06:05:49;;;;;;;35.60;23.02;;;;;;;12.30;82.11;94065.66;2971758;39;20052;-83
2021/05/17 06:07:51;;;;;;;31.77;23.25;;;;;;;12.46;80.77;94057.56;2968661;40;20148;-84
2021/05/17 06:09:53;;;;;;;35.05;23.77;;;;;;;12.64;80.02;94065.03;2971508;40;20117;-88
2021/05/17 06:11:55;;;;;;;30.85;22.77;;;;;;;12.97;79.68;94061.06;2971205;39;20052;-87
2021/05/17 06:13:58;;;;;;;31.65;21.77;;;;;;;13.33;78.57;94050.47;2973444;39;20136;-83
2021/05/17 06:16:00;;;;;;;31.80;21.70;;;;;;;13.68;76.84;94050.47;2975010;39;20071;-84
2021/05/17 06:18:04;;;;;;;46.38;28.60;;;;;;;13.96;75.28;94041.72;2971804;40;20082;-84
2021/05/17 06:20:07;;;;;;;32.45;22.13;;;;;;;14.05;74.83;94043.19;2976341;39;20146;-84
2021/05/17 06:22:09;;;;;;;34.80;22.07;;;;;;;13.84;74.88;94039.66;2976515;39;20056;-83
2021/05/17 06:24:12;;;;;;;31.60;22.10;;;;;;;14.02;74.74;94036.47;2980562;39;20100;-84
2021/05/17 06:26:14;;;;;;;31.38;21.10;;;;;;;14.07;74.43;94049.88;2972642;39;20178;-83
2021/05/17 06:28:20;;;;;;;31.25;20.88;;;;;;;14.37;73.73;94049.59;2975896;39;20048;-83
2021/05/17 06:30:22;;;;;;;28.58;20.70;;;;;;;14.59;73.28;94050.28;2969009;39;20104;-82
2021/05/17 06:32:24;;;;;;;32.78;21.38;;;;;;;14.66;72.88;94058.19;2974048;39;20068;-84
2021/05/17 06:34:26;;;;;;;37.72;22.42;;;;;;;14.60;72.83;94061.63;2975630;39;20429;-86
2021/05/17 06:36:28;;;;;;;31.45;20.88;;;;;;;14.76;71.90;94060.47;2969574;39;20076;-84
2021/05/17 06:38:30;;;;;;;31.35;21.30;;;;;;;14.20;74.36;94046.50;2968350;40;20071;-84
2021/05/17 06:40:32;;;;;;;33.42;21.23;;;;;;;14.31;73.59;94040.66;2968998;39;20068;-85
2021/05/17 06:42:34;;;;;;;32.30;21.83;;;;;;;14.30;73.83;94039.03;2970211;39;20044;-83
2021/05/17 06:44:36;;;;;;;28.77;20.42;;;;;;;14.46;73.02;94037.03;2975485;39;20128;-83
2021/05/17 06:46:38;;;;;;;28.20;20.73;;;;;;;14.69;73.04;94032.25;2976924;39;20085;-83
2021/05/17 06:48:44;;;;;;;29.77;20.85;;;;;;;14.88;72.20;94032.47;2979279;39;20140;-84
2021/05/17 06:50:47;;;;;;;31.58;22.15;;;;;;;15.11;72.15;94024.97;2975790;39;20067;-85
2021/05/17 06:52:49;;;;;;;31.30;20.58;;;;;;;15.27;71.36;94021.13;2969032;40;20063;-84
2021/05/17 06:54:57;;;;;;;32.75;21.40;;;;;;;15.37;70.96;94020.69;2972419;39;20177;-84
2021/05/17 06:59:02;;;;;;;31.52;21.13;;;;;;;15.81;69.55;94013.13;2976512;39;20128;-84
2021/05/17 07:01:04;;;;;;;39.40;27.63;;;;;;;16.07;69.18;94017.53;2971757;39;20052;-85
2021/05/17 07:03:07;;;;;;;51.88;31.77;;;;;;;16.42;68.29;94011.88;2975313;39;20064;-84
2021/05/17 07:05:09;;;;;;;28.05;19.48;;;;;;;16.62;66.60;94012.53;2975349;39;20067;-82
2021/05/17 07:07:19;;;;;;;25.15;18.25;;;;;;;16.64;65.10;94005.22;2975644;39;20066;-84
2021/05/17 07:11:47;;;;;;;19.83;15.55;;;;;;;16.25;65.76;93999.13;2972453;39;20307;-83
2021/05/17 07:13:49;;;;;;;24.48;17.13;;;;;;;16.45;65.93;94008.78;2980434;39;20152;-83
2021/05/17 07:15:51;;;;;;;27.25;18.13;;;;;;;16.33;66.03;94013.94;2975779;39;20426;-84
2021/05/17 07:17:53;;;;;;;35.13;20.08;;;;;;;16.17;67.11;94012.56;2968854;40;20060;-84
2021/05/17 07:19:55;;;;;;;54.30;24.15;;;;;;;16.12;66.79;94021.13;2971570;40;20044;-84
2021/05/17 07:24:21;;;;;;;25.75;17.95;;;;;;;15.97;67.25;94029.31;2975303;39;20064;-84
2021/05/17 07:26:23;;;;;;;28.00;19.42;;;;;;;16.13;66.85;94021.94;2973465;39;20084;-84
2021/05/17 07:28:26;;;;;;;24.52;17.83;;;;;;;15.76;67.40;94016.38;2971716;39;20056;-84
2021/05/17 07:30:28;;;;;;;25.90;18.25;;;;;;;15.82;67.62;94030.59;2969203;39;20348;-82
2021/05/17 07:32:29;;;;;;;28.15;18.73;;;;;;;15.94;67.55;94021.81;2968392;40;20096;-71
2021/05/17 07:34:34;;;;;;;29.40;18.42;;;;;;;16.11;66.71;94022.16;2970728;39;20056;-71
2021/05/17 07:36:36;;;;;;;23.45;18.17;;;;;;;16.30;66.93;94012.50;2970195;39;20060;-70
2021/05/17 07:38:40;;;;;;;28.27;19.48;;;;;;;16.48;66.27;94018.94;2958306;40;20057;-71
2021/05/17 07:40:41;;;;;;;28.45;18.38;;;;;;;16.51;65.82;94003.44;2974883;39;20060;-69
2021/05/17 07:42:43;;;;;;;23.38;17.20;;;;;;;16.12;66.20;94009.75;2973883;39;20119;-70
2021/05/17 07:44:45;;;;;;;30.50;17.95;;;;;;;15.91;67.87;94009.00;2970775;39;20150;-71
2021/05/17 07:46:47;;;;;;;26.23;18.08;;;;;;;16.04;68.28;94002.88;2969859;39;20052;-71
2021/05/17 07:51:09;;;;;;;33.95;22.58;;;;;;;15.78;68.61;93987.94;2968419;39;20129;-70
2021/05/17 07:53:12;;;;;;;35.75;22.75;;;;;;;15.77;69.13;93986.34;2972343;39;20063;-84
2021/05/17 07:55:19;;;;;;;33.75;21.75;;;;;;;16.08;68.61;93976.84;2974522;39;20409;-83
2021/05/17 07:57:21;;;;;;;27.75;20.55;;;;;;;16.23;67.21;93984.50;2975867;39;20156;-84
2021/05/17 07:59:27;;;;;;;32.40;23.98;;;;;;;16.28;67.51;93990.78;2976524;39;20044;-81
2021/05/17 08:01:29;;;;;;;38.20;26.00;;;;;;;16.22;67.82;93991.63;2978878;39;20062;-84
2021/05/17 08:03:30;;;;;;;34.55;24.85;;;;;;;16.29;67.97;93999.53;2978486;39;20351;-81
2021/05/17 08:05:33;;;;;;;34.22;24.10;;;;;;;16.46;68.20;93997.19;2981105;39;20054;-84
2021/05/17 08:07:38;;;;;;;34.95;23.75;;;;;;;16.32;67.63;93997.25;2972267;39;20074;-82
2021/05/17 08:09:40;;;;;;;34.22;24.45;;;;;;;16.51;67.74;93997.38;2973548;39;20067;-72
2021/05/17 08:11:43;;;;;;;28.30;20.42;;;;;;;16.47;67.55;94001.44;2970834;39;20086;-71
2021/05/17 08:13:46;;;;;;;29.70;21.05;;;;;;;16.32;67.93;93993.81;2969411;39;20082;-70
2021/05/17 08:15:55;;;;;;;26.60;21.98;;;;;;;16.42;68.56;94002.09;2968674;39;20080;-70
2021/05/17 08:17:57;;;;;;;26.90;21.38;;;;;;;16.21;69.07;93997.13;2968259;39;20183;-69
2021/05/17 08:20:00;;;;;;;25.48;20.15;;;;;;;16.28;68.44;93995.25;2974091;39;20425;-71
2021/05/17 08:22:03;;;;;;;27.17;19.73;;;;;;;16.06;69.39;93992.91;2968334;40;20401;-72
2021/05/17 08:24:05;;;;;;;26.17;19.80;;;;;;;16.16;68.87;93995.13;2968765;40;20092;-71
2021/05/17 08:26:08;;;;;;;25.30;19.77;;;;;;;16.06;69.12;94010.59;2967048;40;20108;-70
2021/05/17 08:28:10;;;;;;;23.13;17.88;;;;;;;15.95;70.04;94012.88;2967082;40;20048;-70
2021/05/17 08:30:12;;;;;;;24.52;17.92;;;;;;;16.13;69.17;94019.28;2974743;39;20144;-69
2021/05/17 08:32:14;;;;;;;20.77;16.63;;;;;;;15.77;69.27;94018.81;2967472;39;20088;-70
2021/05/17 08:34:18;;;;;;;23.98;15.70;;;;;;;15.60;70.27;94014.19;2975461;39;20060;-70
2021/05/17 08:36:20;;;;;;;21.02;17.08;;;;;;;15.65;70.52;94019.63;2975925;39;20072;-71
2021/05/17 08:38:22;;;;;;;26.02;17.33;;;;;;;15.88;70.87;94019.22;2969923;39;20084;-71
2021/05/17 08:40:26;;;;;;;24.48;17.33;;;;;;;15.90;70.17;94014.53;2973927;39;20047;-71
2021/05/17 08:42:28;;;;;;;21.45;15.98;;;;;;;15.76;70.34;94016.38;2974400;39;20078;-84
2021/05/17 08:44:31;;;;;;;21.98;16.77;;;;;;;16.02;70.58;94022.59;2970457;40;20082;-83
2021/05/17 08:48:54;;;;;;;39.22;25.38;;;;;;;16.18;70.60;94007.09;2967304;40;20079;-70
2021/05/17 08:50:55;;;;;;;22.70;16.70;;;;;;;16.34;70.32;94003.13;2967607;40;20067;-72
2021/05/17 08:52:57;;;;;;;21.85;16.08;;;;;;;16.35;69.98;94004.78;2974868;39;20068;-72
2021/05/17 08:54:59;;;;;;;18.92;15.77;;;;;;;16.19;70.96;94005.25;2969196;39;20052;-71
2021/05/17 08:57:01;;;;;;;21.27;15.32;;;;;;;16.26;70.97;93995.47;2966488;40;20383;-71
2021/05/17 08:59:04;;;;;;;21.88;16.23;;;;;;;16.54;70.46;94000.41;2969258;39;20044;-71
2021/05/17 09:01:06;;;;;;;24.43;15.67;;;;;;;16.79;70.03;94003.06;2964774;40;20409;-72
2021/05/17 09:03:20;;;;;;;19.33;15.38;;;;;;;17.00;69.31;94006.44;2965873;40;20293;-72
2021/05/17 09:05:25;;;;;;;18.17;14.30;;;;;;;17.05;68.52;93998.63;2967246;39;20423;-73
2021/05/17 09:07:34;;;;;;;20.42;14.48;;;;;;;16.90;69.01;94006.09;2969454;39;20063;-72
2021/05/17 09:09:38;;;;;;;22.58;16.40;;;;;;;16.63;71.27;93992.19;2969110;39;20143;-84
2021/05/17 09:11:47;;;;;;;23.63;15.82;;;;;;;16.54;72.13;94007.50;2970938;40;20048;-83
2021/05/17 09:13:49;;;;;;;26.02;16.15;;;;;;;16.63;71.62;93994.84;2974344;39;20400;-83
2021/05/17 09:15:52;;;;;;;19.45;15.02;;;;;;;16.41;68.30;93992.53;2966649;40;20085;-71
2021/05/17 09:17:55;;;;;;;13.90;8.50;;;;;;;15.92;66.84;93996.66;2967099;39;20052;-70
2021/05/17 09:19:57;;;;;;;19.58;12.05;;;;;;;15.97;67.87;94000.25;2968193;40;20078;-71
2021/05/17 09:22:19;;;;;;;20.80;13.27;;;;;;;16.21;69.05;93992.63;2968505;39;20470;-73
2021/05/17 09:24:42;;;;;;;22.20;13.57;;;;;;;16.48;68.16;93995.97;2967556;40;20143;-71
2021/05/17 09:26:55;;;;;;;22.33;14.07;;;;;;;16.71;68.24;93998.06;2967089;40;20076;-72
2021/05/17 09:28:56;;;;;;;23.95;14.07;;;;;;;16.91;68.27;93981.25;2966967;40;20079;-69
2021/05/17 09:31:05;;;;;;;16.35;10.38;;;;;;;16.93;66.41;93977.38;2971797;39;20415;-71
2021/05/17 09:33:08;;;;;;;10.43;5.35;;;;;;;16.91;65.65;93968.03;2973715;39;20131;-71
2021/05/17 09:35:19;;;;;;;6.82;5.30;;;;;;;16.96;65.94;93969.00;2965905;39;20068;-70
2021/05/17 09:37:21;;;;;;;7.47;3.22;;;;;;;17.14;64.95;93970.91;2970229;39;20093;-70
2021/05/17 09:39:25;;;;;;;7.28;3.05;;;;;;;17.15;65.46;93972.50;2968922;39;20467;-71
2021/05/17 09:41:49;;;;;;;5.82;3.00;;;;;;;17.17;64.87;93975.75;2972546;39;20059;-70
2021/05/17 09:43:50;;;;;;;5.47;2.33;;;;;;;17.18;65.10;93966.75;2968531;39;20068;-70
2021/05/17 09:45:52;;;;;;;5.28;2.30;;;;;;;17.13;65.16;93963.97;2973797;39;20112;-71
2021/05/17 09:47:54;;;;;;;3.25;1.85;;;;;;;17.17;64.20;93951.94;2972298;39;20060;-69
2021/05/17 09:49:56;;;;;;;1.83;1.40;;;;;;;17.11;63.32;93942.19;2969611;39;20056;-74
2021/05/17 09:52:14;;;;;;;4.88;1.77;;;;;;;17.33;63.12;93936.50;2969610;39;20066;-71
2021/05/17 09:54:17;;;;;;;3.28;1.50;;;;;;;17.53;63.12;93926.53;2966354;40;20059;-71